createdAt,value
2023-01-07T00:02:21.522Z,89.25
2023-01-07T00:07:26.872Z,91.48
2023-01-07T00:12:31.185Z,90.84
2023-01-07T00:17:34.831Z,93.93
2023-01-07T00:22:40.562Z,90.58
2023-01-07T00:27:44.184Z,92.10
2023-01-07T00:32:47.833Z,91.43
2023-01-07T00:37:53.769Z,93.15
2023-01-07T00:42:57.381Z,91.14
2023-01-07T00:48:01.788Z,91.74
2023-01-07T00:53:07.693Z,92.99
2023-01-07T00:58:15.115Z,93.23
2023-01-07T01:03:18.802Z,92.82
2023-01-07T01:08:25.055Z,92.17
2023-01-07T01:13:28.692Z,92.25
2023-01-07T01:18:32.301Z,90.75
2023-01-07T01:23:37.717Z,93.72
2023-01-07T01:28:41.366Z,95.31
2023-01-07T01:33:45.024Z,97.48
2023-01-07T01:38:50.333Z,96.97
2023-01-07T01:43:54.008Z,93.39
2023-01-07T01:49:00.533Z,94.15
2023-01-07T01:54:09.256Z,96.98
2023-01-07T01:59:18.467Z,98.78
2023-01-07T02:04:23.967Z,98.78
2023-01-07T02:09:29.233Z,99.92
2023-01-07T02:14:47.119Z,96.13
2023-01-07T02:20:20.755Z,100.00
2023-01-07T02:26:02.281Z,94.87
2023-01-07T02:31:26.034Z,95.01
2023-01-07T02:36:47.082Z,93.83
2023-01-07T02:41:58.375Z,96.55
2023-01-07T02:47:07.813Z,95.23
2023-01-07T02:52:22.187Z,97.04
2023-01-07T02:57:50.159Z,96.75
2023-01-07T03:03:19.851Z,91.88
2023-01-07T03:08:38.842Z,95.13
2023-01-07T03:13:47.226Z,97.47
2023-01-07T03:18:56.617Z,98.26
2023-01-07T03:24:02.861Z,95.47
2023-01-07T03:29:09.100Z,96.53
2023-01-07T03:34:17.366Z,98.68
2023-01-07T03:39:25.469Z,100.00
2023-01-07T03:44:29.297Z,100.00
2023-01-07T03:49:34.867Z,100.00
2023-01-07T03:54:40.173Z,100.00
2023-01-07T03:59:43.856Z,100.00
2023-01-07T04:04:48.276Z,100.00
2023-01-07T04:09:53.629Z,100.00
2023-01-07T04:14:59.171Z,98.80
2023-01-07T04:20:02.984Z,98.92
2023-01-07T04:25:09.765Z,97.36
2023-01-07T04:30:13.883Z,97.71
2023-01-07T04:35:17.646Z,98.25
2023-01-07T04:40:22.915Z,98.66
2023-01-07T04:45:26.573Z,99.16
2023-01-07T04:50:30.232Z,99.08
2023-01-07T04:55:35.551Z,95.88
2023-01-07T05:00:39.217Z,94.32
2023-01-07T05:05:42.826Z,97.67
2023-01-07T05:10:50.076Z,98.07
2023-01-07T05:15:53.727Z,93.93
2023-01-07T05:20:57.400Z,95.07
2023-01-07T05:26:02.704Z,94.23
2023-01-07T05:31:06.605Z,94.00
2023-01-07T05:36:10.403Z,92.95
2023-01-07T05:41:15.697Z,96.41
2023-01-07T05:46:19.689Z,95.80
2023-01-07T05:51:23.326Z,93.55
2023-01-07T05:56:28.621Z,95.08
2023-01-07T06:01:32.422Z,95.09
2023-01-07T06:06:36.206Z,94.61
2023-01-07T06:11:41.510Z,94.57
2023-01-07T06:16:45.179Z,94.57
2023-01-07T06:21:48.839Z,94.28
2023-01-07T06:26:54.109Z,93.91
2023-01-07T06:31:57.724Z,94.13
2023-01-07T06:37:01.553Z,93.61
2023-01-07T06:42:07.014Z,93.38
2023-01-07T06:47:10.638Z,93.43
2023-01-07T06:52:14.278Z,93.68
2023-01-07T06:57:19.631Z,92.91
2023-01-07T07:02:25.389Z,94.05
2023-01-07T07:07:29.076Z,93.86
2023-01-07T07:12:35.512Z,94.45
2023-01-07T07:17:39.152Z,93.37
2023-01-07T07:22:47.173Z,93.15
2023-01-07T07:27:52.443Z,94.10
2023-01-07T07:32:56.088Z,93.77
2023-01-07T07:37:59.698Z,93.29
2023-01-07T07:43:10.169Z,93.46
2023-01-07T07:48:17.176Z,93.62
2023-01-07T07:53:21.077Z,93.84
2023-01-07T07:58:26.363Z,93.90
2023-01-07T08:03:30.022Z,93.92
2023-01-07T08:08:33.963Z,94.82
2023-01-07T08:13:39.283Z,95.29
2023-01-07T08:18:43.637Z,95.25
2023-01-07T08:23:47.261Z,95.79
2023-01-07T08:28:52.708Z,91.87
2023-01-07T08:33:56.345Z,89.53
2023-01-07T08:38:59.988Z,91.16
2023-01-07T08:44:05.564Z,91.98
2023-01-07T08:49:10.029Z,93.56
2023-01-07T08:54:13.694Z,94.00
2023-01-07T08:59:19.048Z,93.89
2023-01-07T09:04:22.694Z,91.94
2023-01-07T09:09:26.348Z,92.45
2023-01-07T09:14:31.992Z,89.03
2023-01-07T09:19:35.668Z,90.17
2023-01-07T09:24:39.271Z,89.59
2023-01-07T09:29:44.558Z,91.99
2023-01-07T09:34:48.301Z,91.99
2023-01-07T09:39:51.932Z,93.17
2023-01-07T09:45:08.963Z,93.32
2023-01-07T09:50:23.247Z,93.35
2023-01-07T09:55:33.077Z,93.82
2023-01-07T10:00:43.427Z,94.30
2023-01-07T10:06:05.236Z,94.46
2023-01-07T10:11:22.033Z,94.48
2023-01-07T10:16:36.449Z,94.10
2023-01-07T10:21:43.891Z,94.38
2023-01-07T10:26:52.127Z,94.24
2023-01-07T10:31:59.274Z,94.58
2023-01-07T10:37:05.489Z,95.96
2023-01-07T10:42:12.491Z,95.22
2023-01-07T10:47:22.371Z,96.99
2023-01-07T10:52:38.585Z,97.64
2023-01-07T10:57:42.636Z,97.46
2023-01-07T11:02:51.660Z,97.37
2023-01-07T11:08:00.313Z,99.60
2023-01-07T11:13:07.854Z,96.67
2023-01-07T11:18:24.339Z,95.96
2023-01-07T11:23:37.892Z,99.52
2023-01-07T11:28:49.301Z,98.96
2023-01-07T11:34:03.816Z,97.94
2023-01-07T11:39:11.216Z,96.96
2023-01-07T11:44:17.027Z,95.55
2023-01-07T11:49:32.106Z,94.68
2023-01-07T11:54:35.747Z,95.54
2023-01-07T11:59:39.468Z,96.06
2023-01-07T12:04:44.783Z,96.54
2023-01-07T12:09:48.492Z,97.11
2023-01-07T12:14:52.197Z,98.48
2023-01-07T12:20:27.989Z,99.25
2023-01-07T12:25:40.902Z,99.57
2023-01-07T12:31:08.094Z,99.55
2023-01-07T12:36:20.960Z,98.68
2023-01-07T12:41:28.807Z,98.44
2023-01-07T12:46:39.653Z,98.95
2023-01-07T12:51:49.795Z,98.98
2023-01-07T12:56:59.004Z,100.00
2023-01-07T13:02:16.841Z,98.64
2023-01-07T13:07:29.474Z,100.00
2023-01-07T13:12:41.106Z,99.67
2023-01-07T13:17:46.307Z,100.00
2023-01-07T13:22:55.919Z,98.90
2023-01-07T13:28:28.078Z,98.56
2023-01-07T13:33:43.628Z,99.38
2023-01-07T13:39:13.814Z,100.00
2023-01-07T13:44:35.277Z,100.00
2023-01-07T13:49:39.281Z,100.00
2023-01-07T13:55:37.971Z,100.00
2023-01-07T14:00:58.437Z,100.00
2023-01-07T14:06:43.031Z,100.00
2023-01-07T14:12:08.883Z,100.00
2023-01-07T14:17:23.706Z,100.00
2023-01-07T14:22:40.794Z,100.00
2023-01-07T14:28:13.769Z,100.00
2023-01-07T14:33:21.970Z,100.00
2023-01-07T14:39:07.356Z,100.00
2023-01-07T14:44:30.786Z,100.00
2023-01-07T14:49:53.361Z,100.00
2023-01-07T14:55:29.279Z,100.00
2023-01-07T15:01:07.064Z,97.96
2023-01-07T15:06:22.501Z,100.00
2023-01-07T15:11:26.988Z,100.00
2023-01-07T15:16:36.310Z,100.00
2023-01-07T15:21:52.006Z,100.00
2023-01-07T15:27:02.901Z,100.00
2023-01-07T15:32:19.474Z,100.00
2023-01-07T15:37:23.232Z,100.00
2023-01-07T15:42:28.435Z,100.00
2023-01-07T15:47:38.877Z,100.00
2023-01-07T15:52:48.542Z,90.81
2023-01-07T15:57:57.456Z,87.43
2023-01-07T16:03:04.026Z,81.51
2023-01-07T16:08:16.047Z,76.86
2023-01-07T16:13:19.686Z,75.50
2023-01-07T16:18:25.219Z,74.88
2023-01-07T16:23:30.164Z,72.75
2023-01-07T16:28:38.906Z,74.10
2023-01-07T16:33:44.897Z,70.59
2023-01-07T16:38:52.404Z,68.66
2023-01-07T16:43:56.733Z,66.79
2023-01-07T16:49:29.937Z,66.11
2023-01-07T16:54:36.333Z,77.03
2023-01-07T16:59:43.696Z,75.37
2023-01-07T17:04:49.204Z,70.46
2023-01-07T17:09:54.553Z,72.97
2023-01-07T17:14:58.267Z,69.46
2023-01-07T17:20:15.829Z,64.60
2023-01-07T17:25:24.668Z,66.81
2023-01-07T17:30:32.810Z,64.34
2023-01-07T17:35:45.425Z,60.21
2023-01-07T17:40:49.473Z,63.94
2023-01-07T17:45:53.128Z,61.96
2023-01-07T17:50:59.103Z,62.28
2023-01-07T17:56:02.983Z,67.10
2023-01-07T18:01:08.964Z,67.46
2023-01-07T18:06:18.061Z,64.15
2023-01-07T18:11:22.919Z,66.15
2023-01-07T18:16:26.655Z,71.42
2023-01-07T18:21:34.506Z,74.97
2023-01-07T18:26:38.123Z,73.58
2023-01-07T18:31:43.417Z,74.97
2023-01-07T18:36:51.372Z,68.18
2023-01-07T18:41:55.210Z,72.48
2023-01-07T18:46:58.881Z,78.89
2023-01-07T18:52:04.176Z,84.14
2023-01-07T18:57:07.951Z,78.25
2023-01-07T19:02:16.541Z,85.91
2023-01-07T19:07:21.872Z,87.47
2023-01-07T19:12:25.478Z,89.99
2023-01-07T19:17:29.176Z,93.73
2023-01-07T19:22:34.486Z,91.72
2023-01-07T19:27:38.118Z,91.13
2023-01-07T19:32:41.787Z,87.65
2023-01-07T19:37:47.126Z,90.89
2023-01-07T19:42:50.800Z,90.13
2023-01-07T19:47:54.459Z,90.12
2023-01-07T19:53:00.149Z,89.79
2023-01-07T19:58:03.789Z,90.52
2023-01-07T20:03:07.490Z,88.56
2023-01-07T20:08:12.873Z,91.37
2023-01-07T20:13:16.525Z,91.67
2023-01-07T20:18:20.158Z,90.94
2023-01-07T20:23:26.730Z,94.24
2023-01-07T20:28:30.693Z,89.81
2023-01-07T20:33:35.087Z,89.04
2023-01-07T20:38:40.729Z,87.66
2023-01-07T20:43:44.941Z,82.70
2023-01-07T20:48:48.800Z,84.79
2023-01-07T20:53:54.332Z,85.95
2023-01-07T20:58:58.433Z,83.36
2023-01-07T21:04:02.070Z,84.38
2023-01-07T21:09:08.170Z,83.57
2023-01-07T21:14:11.774Z,80.10
2023-01-07T21:19:15.760Z,80.37
2023-01-07T21:24:21.134Z,79.25
2023-01-07T21:29:24.777Z,79.16
2023-01-07T21:34:28.426Z,78.55
2023-01-07T21:39:33.775Z,73.60
2023-01-07T21:44:38.157Z,74.72
2023-01-07T21:49:42.009Z,80.81
2023-01-07T21:54:48.031Z,75.38
2023-01-07T21:59:51.643Z,77.51
2023-01-07T22:04:55.255Z,76.54
2023-01-07T22:10:00.544Z,76.82
2023-01-07T22:15:04.312Z,77.90
2023-01-07T22:20:09.294Z,74.44
2023-01-07T22:25:14.589Z,72.39
2023-01-07T22:30:20.459Z,78.57
2023-01-07T22:35:24.611Z,75.35
2023-01-07T22:40:33.225Z,78.69
2023-01-07T22:45:43.135Z,83.66
2023-01-07T22:50:46.799Z,83.77
2023-01-07T22:55:52.210Z,84.60
2023-01-07T23:01:10.939Z,80.62
2023-01-07T23:06:15.960Z,80.27
2023-01-07T23:11:21.292Z,81.13
2023-01-07T23:16:24.963Z,82.93
2023-01-07T23:21:28.650Z,81.46
2023-01-07T23:26:34.916Z,80.25
2023-01-07T23:31:38.710Z,81.96
2023-01-07T23:36:42.403Z,82.99
2023-01-07T23:41:47.748Z,84.87
2023-01-07T23:46:51.770Z,84.45
2023-01-07T23:51:55.391Z,84.79
2023-01-07T23:57:00.722Z,83.65
